Time,TemperatureF,DewpointF,PressureIn,WindDirection,WindDirectionDegrees,WindSpeedMPH,WindSpeedGustMPH,Humidity,HourlyPrecipIn,Conditions,Clouds,dailyrainin,SoftwareType,DateUTC
2013-04-10 00:00:00,56.5,39.6,29.92,South,176,0.0,0.0,53,0.00,,---,0.00,VWS V14.01,2013-04-10 04:00:00,
2013-04-10 00:01:00,56.5,39.6,29.92,South,176,0.0,0.0,53,0.00,,---,0.00,VWS V14.01,2013-04-10 04:01:00,
2013-04-10 00:04:00,56.5,39.6,29.92,South,176,0.0,0.0,53,0.00,,---,0.00,VWS V14.01,2013-04-10 04:04:00,
2013-04-10 00:09:00,56.3,39.4,29.92,South,176,0.0,0.0,53,0.00,,---,0.00,VWS V14.01,2013-04-10 04:09:00,
2013-04-10 00:12:00,56.3,39.4,29.92,South,176,0.0,0.0,53,0.00,,---,0.00,VWS V14.01,2013-04-10 04:12:00,
2013-04-10 00:18:00,56.3,39.9,29.91,South,176,0.0,0.0,54,0.00,,---,0.00,VWS V14.01,2013-04-10 04:18:00,
2013-04-10 00:23:00,56.2,39.3,29.91,South,176,0.0,0.0,53,0.00,,---,0.00,VWS V14.01,2013-04-10 04:23:00,
2013-04-10 00:28:00,56.0,39.6,29.91,South,176,0.0,0.0,54,0.00,,---,0.00,VWS V14.01,2013-04-10 04:28:00,
2013-04-10 00:34:00,55.9,39.5,29.91,South,176,0.0,0.0,54,0.00,,---,0.00,VWS V14.01,2013-04-10 04:34:00,
2013-04-10 00:39:00,55.6,39.7,29.90,South,176,0.0,0.0,55,0.00,,---,0.00,VWS V14.01,2013-04-10 04:39:00,
2013-04-10 00:44:00,55.4,39.5,29.90,South,176,0.0,0.0,55,0.00,,---,0.00,VWS V14.01,2013-04-10 04:44:00,
2013-04-10 00:49:00,55.3,39.9,29.90,South,176,0.0,0.0,56,0.00,,---,0.00,VWS V14.01,2013-04-10 04:49:00,
2013-04-10 00:54:00,55.1,39.7,29.90,South,176,0.0,0.0,56,0.00,,---,0.00,VWS V14.01,2013-04-10 04:54:00,
2013-04-10 00:59:00,55.0,39.6,29.90,South,181,0.0,0.0,56,0.00,,---,0.00,VWS V14.01,2013-04-10 04:59:00,
2013-04-10 01:05:00,55.0,39.6,29.90,SE,144,3.0,3.0,56,0.00,,---,0.00,VWS V14.01,2013-04-10 05:05:00,
2013-04-10 01:10:00,55.4,40.0,29.89,NNE,13,0.0,0.0,56,0.00,,---,0.00,VWS V14.01,2013-04-10 05:10:00,
2013-04-10 01:15:00,55.6,40.2,29.89,North,360,0.0,0.0,56,0.00,,---,0.00,VWS V14.01,2013-04-10 05:15:00,
2013-04-10 01:21:00,55.6,40.2,29.89,ENE,65,0.0,0.0,56,0.00,,---,0.00,VWS V14.01,2013-04-10 05:21:00,
2013-04-10 01:26:00,55.7,40.3,29.89,ENE,65,0.0,0.0,56,0.00,,---,0.00,VWS V14.01,2013-04-10 05:26:00,
2013-04-10 01:31:00,55.6,40.2,29.88,East,79,0.0,0.0,56,0.00,,---,0.00,VWS V14.01,2013-04-10 05:31:00,
2013-04-10 01:36:00,55.7,40.3,29.88,East,79,0.0,0.0,56,0.00,,---,0.00,VWS V14.01,2013-04-10 05:36:00,
2013-04-10 01:42:00,55.7,40.3,29.87,East,79,0.0,0.0,56,0.00,,---,0.00,VWS V14.01,2013-04-10 05:42:00,
2013-04-10 01:47:00,55.6,40.6,29.86,SSW,196,0.0,0.0,57,0.00,,---,0.00,VWS V14.01,2013-04-10 05:47:00,
2013-04-10 01:52:00,55.4,40.0,29.86,SSW,196,0.0,0.0,56,0.00,,---,0.00,VWS V14.01,2013-04-10 05:52:00,
2013-04-10 01:57:00,55.4,40.0,29.86,SSW,196,0.0,0.0,56,0.00,,---,0.00,VWS V14.01,2013-04-10 05:57:00,
2013-04-10 02:02:00,55.4,40.4,29.85,SSW,196,0.0,0.0,57,0.00,,---,0.00,VWS V14.01,2013-04-10 06:02:00,
2013-04-10 02:07:00,55.4,40.4,29.84,East,88,0.0,0.0,57,0.00,,---,0.00,VWS V14.01,2013-04-10 06:07:00,
2013-04-10 02:12:00,55.4,40.9,29.83,SW,233,0.0,3.0,58,0.00,,---,0.00,VWS V14.01,2013-04-10 06:12:00,
2013-04-10 02:17:00,55.4,40.4,29.83,SW,232,0.0,0.0,57,0.00,,---,0.00,VWS V14.01,2013-04-10 06:17:00,
2013-04-10 02:22:00,55.4,41.3,29.84,SW,232,0.0,0.0,59,0.00,,---,0.00,VWS V14.01,2013-04-10 06:22:00,
2013-04-10 02:28:00,55.4,40.4,29.82,SW,232,0.0,0.0,57,0.00,,---,0.00,VWS V14.01,2013-04-10 06:28:00,
2013-04-10 02:33:00,55.6,41.1,29.82,NNE,30,0.0,0.0,58,0.00,,---,0.00,VWS V14.01,2013-04-10 06:33:00,
2013-04-10 02:38:00,55.6,40.6,29.81,SE,141,0.0,0.0,57,0.00,,---,0.00,VWS V14.01,2013-04-10 06:38:00,
2013-04-10 02:43:00,55.7,40.3,29.81,ENE,69,0.0,0.0,56,0.00,,---,0.00,VWS V14.01,2013-04-10 06:43:00,
2013-04-10 02:49:00,56.0,40.5,29.82,ENE,64,0.0,0.0,56,0.00,,---,0.00,VWS V14.01,2013-04-10 06:49:00,
2013-04-10 02:54:00,56.0,40.5,29.82,NNW,331,0.0,1.0,56,0.00,,---,0.00,VWS V14.01,2013-04-10 06:54:00,
2013-04-10 03:00:00,56.0,41.5,29.94,NNW,331,10.0,11.0,58,0.00,,---,0.00,VWS V14.01,2013-04-10 07:00:00,
2013-04-10 03:05:00,56.2,42.5,29.88,NW,304,0.0,9.0,60,0.00,,---,0.00,VWS V14.01,2013-04-10 07:05:00,
2013-04-10 03:10:00,55.6,45.2,29.92,NE,49,2.0,5.0,68,0.00,,---,0.00,VWS V14.01,2013-04-10 07:10:00,
2013-04-10 03:15:00,54.4,45.9,29.92,NW,322,2.0,6.0,73,0.01,,---,0.01,VWS V14.01,2013-04-10 07:15:00,
2013-04-10 03:20:00,53.5,46.1,29.91,NNE,28,0.0,0.0,76,0.02,,---,0.02,VWS V14.01,2013-04-10 07:20:00,
2013-04-10 03:25:00,52.8,46.1,29.90,North,355,0.0,0.0,78,0.03,,---,0.03,VWS V14.01,2013-04-10 07:25:00,
2013-04-10 03:30:00,52.3,46.3,29.90,NW,323,4.0,7.0,80,0.03,,---,0.03,VWS V14.01,2013-04-10 07:30:00,
2013-04-10 03:35:00,51.9,46.6,29.90,NNW,329,0.0,0.0,82,0.03,,---,0.03,VWS V14.01,2013-04-10 07:35:00,
2013-04-10 03:41:00,51.6,46.6,29.90,NW,321,0.0,0.0,83,0.03,,---,0.03,VWS V14.01,2013-04-10 07:41:00,
2013-04-10 03:46:00,51.3,46.6,29.90,NNW,332,1.0,3.0,84,0.03,,---,0.03,VWS V14.01,2013-04-10 07:46:00,
2013-04-10 03:52:00,51.0,46.7,29.89,NNW,336,0.0,0.0,85,0.03,,---,0.03,VWS V14.01,2013-04-10 07:52:00,
2013-04-10 03:57:00,50.8,46.8,29.89,North,355,0.0,0.0,86,0.03,,---,0.03,VWS V14.01,2013-04-10 07:57:00,
2013-04-10 04:03:00,50.5,46.5,29.88,NW,315,0.0,0.0,86,0.03,,---,0.03,VWS V14.01,2013-04-10 08:03:00,
2013-04-10 04:08:00,50.2,46.2,29.88,NNW,345,0.0,0.0,86,0.03,,---,0.03,VWS V14.01,2013-04-10 08:08:00,
2013-04-10 04:13:00,50.1,46.4,29.88,NNW,345,0.0,0.0,87,0.02,,---,0.03,VWS V14.01,2013-04-10 08:13:00,
2013-04-10 04:18:00,50.1,46.7,29.88,NNW,345,0.0,1.0,88,0.01,,---,0.03,VWS V14.01,2013-04-10 08:18:00,
2013-04-10 04:24:00,49.8,46.4,29.86,NNW,342,0.0,0.0,88,0.00,,---,0.03,VWS V14.01,2013-04-10 08:24:00,
2013-04-10 04:29:00,49.8,46.4,29.86,NNW,342,0.0,0.0,88,0.00,,---,0.03,VWS V14.01,2013-04-10 08:29:00,
2013-04-10 04:34:00,49.6,46.2,29.86,NNW,342,0.0,0.0,88,0.00,,---,0.03,VWS V14.01,2013-04-10 08:34:00,
2013-04-10 04:39:00,49.5,46.4,29.85,NNW,342,0.0,0.0,89,0.00,,---,0.03,VWS V14.01,2013-04-10 08:39:00,
2013-04-10 04:44:00,49.5,46.4,29.85,NNW,342,0.0,0.0,89,0.00,,---,0.03,VWS V14.01,2013-04-10 08:44:00,
2013-04-10 04:49:00,49.5,46.4,29.86,NNW,342,0.0,0.0,89,0.00,,---,0.03,VWS V14.01,2013-04-10 08:49:00,
2013-04-10 04:55:00,49.4,46.3,29.85,NNW,342,0.0,0.0,89,0.00,,---,0.03,VWS V14.01,2013-04-10 08:55:00,
2013-04-10 05:00:00,49.4,46.3,29.86,NNW,342,0.0,0.0,89,0.00,,---,0.03,VWS V14.01,2013-04-10 09:00:00,
2013-04-10 05:05:00,49.4,46.6,29.86,NNW,342,0.0,0.0,90,0.00,,---,0.03,VWS V14.01,2013-04-10 09:05:00,
2013-04-10 05:12:00,49.4,46.6,29.86,NNW,342,0.0,0.0,90,0.00,,---,0.03,VWS V14.01,2013-04-10 09:12:00,
2013-04-10 05:17:00,49.2,46.4,29.87,NNW,342,0.0,0.0,90,0.00,,---,0.03,VWS V14.01,2013-04-10 09:17:00,
2013-04-10 05:22:00,49.2,46.4,29.87,NNW,342,0.0,0.0,90,0.00,,---,0.03,VWS V14.01,2013-04-10 09:22:00,
2013-04-10 05:27:00,49.1,46.3,29.86,NNW,342,0.0,0.0,90,0.00,,---,0.03,VWS V14.01,2013-04-10 09:27:00,
2013-04-10 05:33:00,49.1,46.3,29.87,NNW,342,0.0,0.0,90,0.00,,---,0.03,VWS V14.01,2013-04-10 09:33:00,
2013-04-10 05:39:00,48.9,46.1,29.87,NNW,342,0.0,0.0,90,0.00,,---,0.03,VWS V14.01,2013-04-10 09:39:00,
2013-04-10 05:44:00,48.9,46.1,29.88,NNW,342,0.0,0.0,90,0.00,,---,0.03,VWS V14.01,2013-04-10 09:44:00,
2013-04-10 05:49:00,48.9,46.1,29.88,NNW,342,0.0,0.0,90,0.00,,---,0.03,VWS V14.01,2013-04-10 09:49:00,
2013-04-10 05:55:00,48.9,46.1,29.88,NNW,342,0.0,0.0,90,0.00,,---,0.03,VWS V14.01,2013-04-10 09:55:00,
2013-04-10 06:00:00,48.9,46.4,29.89,NNW,342,0.0,0.0,91,0.00,,---,0.03,VWS V14.01,2013-04-10 10:00:00,
2013-04-10 06:05:00,48.9,46.4,29.89,NNW,342,0.0,0.0,91,0.00,,---,0.03,VWS V14.01,2013-04-10 10:05:00,
2013-04-10 06:12:00,48.8,46.3,29.89,NNW,342,0.0,0.0,91,0.00,,---,0.03,VWS V14.01,2013-04-10 10:12:00,
2013-04-10 06:17:00,48.8,46.3,29.90,NNW,342,0.0,0.0,91,0.00,,---,0.03,VWS V14.01,2013-04-10 10:17:00,
2013-04-10 06:22:00,48.6,46.1,29.89,NNW,342,0.0,0.0,91,0.00,,---,0.03,VWS V14.01,2013-04-10 10:22:00,
2013-04-10 06:28:00,48.5,46.0,29.89,NNW,342,0.0,0.0,91,0.00,,---,0.03,VWS V14.01,2013-04-10 10:28:00,
2013-04-10 06:33:00,48.5,46.0,29.89,NNW,342,0.0,0.0,91,0.00,,---,0.03,VWS V14.01,2013-04-10 10:33:00,
2013-04-10 06:39:00,48.3,45.8,29.89,NNW,342,0.0,0.0,91,0.00,,---,0.03,VWS V14.01,2013-04-10 10:39:00,
2013-04-10 06:45:00,48.3,45.8,29.89,NNW,342,0.0,0.0,91,0.00,,---,0.03,VWS V14.01,2013-04-10 10:45:00,
2013-04-10 06:50:00,48.2,45.7,29.89,NNW,342,0.0,0.0,91,0.00,,---,0.03,VWS V14.01,2013-04-10 10:50:00,
2013-04-10 06:55:00,48.2,45.7,29.89,NNW,342,0.0,0.0,91,0.00,,---,0.03,VWS V14.01,2013-04-10 10:55:00,
2013-04-10 07:01:00,48.2,45.7,29.91,NNW,342,0.0,0.0,91,0.00,,---,0.03,VWS V14.01,2013-04-10 11:01:00,
2013-04-10 07:07:00,48.0,45.5,29.91,NNW,342,0.0,0.0,91,0.01,,---,0.04,VWS V14.01,2013-04-10 11:07:00,
2013-04-10 07:12:00,48.0,45.8,29.91,NNW,342,0.0,0.0,92,0.01,,---,0.04,VWS V14.01,2013-04-10 11:12:00,
2013-04-10 07:17:00,48.0,45.8,29.91,NNW,342,0.0,0.0,92,0.01,,---,0.04,VWS V14.01,2013-04-10 11:17:00,
2013-04-10 07:22:00,48.2,46.0,29.92,NNW,342,0.0,0.0,92,0.01,,---,0.04,VWS V14.01,2013-04-10 11:22:00,
2013-04-10 07:28:00,48.3,46.1,29.92,NNW,342,0.0,0.0,92,0.01,,---,0.04,VWS V14.01,2013-04-10 11:28:00,
2013-04-10 07:34:00,48.5,46.3,29.92,NNW,342,0.0,0.0,92,0.01,,---,0.04,VWS V14.01,2013-04-10 11:34:00,
2013-04-10 07:39:00,48.5,46.3,29.92,NNW,342,0.0,0.0,92,0.01,,---,0.04,VWS V14.01,2013-04-10 11:39:00,
2013-04-10 07:44:00,48.6,46.4,29.92,NNW,342,0.0,0.0,92,0.01,,---,0.04,VWS V14.01,2013-04-10 11:44:00,
2013-04-10 07:50:00,48.6,46.4,29.92,NNW,342,0.0,0.0,92,0.01,,---,0.04,VWS V14.01,2013-04-10 11:50:00,
2013-04-10 07:55:00,48.8,46.6,29.92,NNW,342,0.0,0.0,92,0.01,,---,0.04,VWS V14.01,2013-04-10 11:55:00,
2013-04-10 08:00:00,48.8,46.6,29.92,NNW,342,0.0,0.0,92,0.01,,---,0.04,VWS V14.01,2013-04-10 12:00:00,
2013-04-10 08:05:00,48.9,46.7,29.93,NNW,342,0.0,0.0,92,0.01,,---,0.04,VWS V14.01,2013-04-10 12:05:00,
2013-04-10 08:10:00,49.1,47.2,29.93,NNW,342,0.0,0.0,93,0.00,,---,0.04,VWS V14.01,2013-04-10 12:10:00,
2013-04-10 08:15:00,49.5,47.6,29.93,NNW,327,0.0,3.0,93,0.00,,---,0.04,VWS V14.01,2013-04-10 12:15:00,
2013-04-10 08:20:00,49.8,47.9,29.94,NNW,340,0.0,3.0,93,0.00,,---,0.04,VWS V14.01,2013-04-10 12:20:00,
2013-04-10 08:26:00,50.1,47.9,29.94,North,360,0.0,0.0,92,0.00,,---,0.04,VWS V14.01,2013-04-10 12:26:00,
2013-04-10 08:32:00,50.2,48.0,29.94,NNW,333,0.0,1.0,92,0.00,,---,0.04,VWS V14.01,2013-04-10 12:32:00,
2013-04-10 08:38:00,50.5,48.0,29.94,NNW,333,0.0,0.0,91,0.00,,---,0.04,VWS V14.01,2013-04-10 12:38:00,
2013-04-10 08:43:00,50.7,48.2,29.93,NNE,16,0.0,0.0,91,0.00,,---,0.04,VWS V14.01,2013-04-10 12:43:00,
2013-04-10 08:48:00,50.8,48.0,29.93,NNE,16,1.0,1.0,90,0.00,,---,0.04,VWS V14.01,2013-04-10 12:48:00,
2013-04-10 08:53:00,51.1,48.3,29.94,NNE,16,0.0,0.0,90,0.00,,---,0.04,VWS V14.01,2013-04-10 12:53:00,
2013-04-10 08:58:00,51.4,48.3,29.93,NNW,340,0.0,2.0,89,0.00,,---,0.04,VWS V14.01,2013-04-10 12:58:00,
2013-04-10 09:03:00,51.6,47.9,29.93,NW,322,0.0,2.0,87,0.00,,---,0.04,VWS V14.01,2013-04-10 13:03:00,
2013-04-10 09:08:00,51.9,48.5,29.94,NW,322,0.0,0.0,88,0.00,,---,0.04,VWS V14.01,2013-04-10 13:08:00,
2013-04-10 09:14:00,52.3,48.2,29.93,NW,322,0.0,0.0,86,0.00,,---,0.04,VWS V14.01,2013-04-10 13:14:00,
2013-04-10 09:19:00,52.5,48.1,29.94,NW,322,0.0,0.0,85,0.00,,---,0.04,VWS V14.01,2013-04-10 13:19:00,
2013-04-10 09:24:00,52.8,48.1,29.93,NW,322,0.0,0.0,84,0.00,,---,0.04,VWS V14.01,2013-04-10 13:24:00,
2013-04-10 09:29:00,53.1,48.1,29.92,NW,322,0.0,0.0,83,0.00,,---,0.04,VWS V14.01,2013-04-10 13:29:00,
2013-04-10 09:34:00,53.2,47.9,29.93,NW,322,0.0,0.0,82,0.00,,---,0.04,VWS V14.01,2013-04-10 13:34:00,
2013-04-10 09:39:00,53.5,48.2,29.93,NW,322,0.0,0.0,82,0.00,,---,0.04,VWS V14.01,2013-04-10 13:39:00,
2013-04-10 09:45:00,53.8,47.8,29.93,NNW,338,1.0,4.0,80,0.00,,---,0.04,VWS V14.01,2013-04-10 13:45:00,
2013-04-10 09:52:00,54.1,47.7,29.93,NNE,19,0.0,1.0,79,0.00,,---,0.04,VWS V14.01,2013-04-10 13:52:00,
2013-04-10 09:57:00,54.4,48.0,29.93,NW,306,0.0,0.0,79,0.00,,---,0.04,VWS V14.01,2013-04-10 13:57:00,
2013-04-10 10:02:00,55.0,47.9,29.93,NW,305,0.0,1.0,77,0.00,,---,0.04,VWS V14.01,2013-04-10 14:02:00,
2013-04-10 10:07:00,55.6,48.5,29.93,NNE,19,0.0,0.0,77,0.00,,---,0.04,VWS V14.01,2013-04-10 14:07:00,
2013-04-10 10:13:00,56.2,48.0,29.93,WNW,294,2.0,3.0,74,0.00,,---,0.04,VWS V14.01,2013-04-10 14:13:00,
2013-04-10 10:18:00,56.5,48.0,29.93,SW,217,0.0,2.0,73,0.00,,---,0.04,VWS V14.01,2013-04-10 14:18:00,
2013-04-10 10:23:00,56.7,48.5,29.93,SW,217,0.0,0.0,74,0.00,,---,0.04,VWS V14.01,2013-04-10 14:23:00,
2013-04-10 10:28:00,57.3,48.7,29.93,NW,306,0.0,1.0,73,0.00,,---,0.04,VWS V14.01,2013-04-10 14:28:00,
2013-04-10 10:33:00,58.0,49.0,29.93,NW,306,0.0,0.0,72,0.00,,---,0.04,VWS V14.01,2013-04-10 14:33:00,
2013-04-10 10:38:00,58.3,49.0,29.93,West,273,0.0,1.0,71,0.00,,---,0.04,VWS V14.01,2013-04-10 14:38:00,
2013-04-10 10:43:00,58.7,49.3,29.93,WSW,250,3.0,3.0,71,0.00,,---,0.04,VWS V14.01,2013-04-10 14:43:00,
2013-04-10 10:48:00,59.2,49.8,29.93,WSW,250,0.0,0.0,71,0.00,,---,0.04,VWS V14.01,2013-04-10 14:48:00,
2013-04-10 10:53:00,59.8,49.2,29.93,NW,317,0.0,1.0,68,0.00,,---,0.04,VWS V14.01,2013-04-10 14:53:00,
2013-04-10 10:58:00,60.2,49.2,29.93,West,261,0.0,3.0,67,0.00,,---,0.04,VWS V14.01,2013-04-10 14:58:00,
2013-04-10 11:03:00,60.5,49.5,29.93,West,265,1.0,2.0,67,0.00,,---,0.04,VWS V14.01,2013-04-10 15:03:00,
2013-04-10 11:08:00,60.7,50.1,29.94,WSW,254,1.0,2.0,68,0.00,,---,0.04,VWS V14.01,2013-04-10 15:08:00,
2013-04-10 11:13:00,60.7,49.3,29.94,WNW,296,1.0,3.0,66,0.00,,---,0.04,VWS V14.01,2013-04-10 15:13:00,
2013-04-10 11:19:00,61.0,49.6,29.94,NNW,338,1.0,1.0,66,0.00,,---,0.04,VWS V14.01,2013-04-10 15:19:00,
2013-04-10 11:24:00,61.6,50.1,29.94,NE,41,0.0,4.0,66,0.00,,---,0.04,VWS V14.01,2013-04-10 15:24:00,
2013-04-10 11:29:00,62.1,49.8,29.94,NW,315,1.0,1.0,64,0.00,,---,0.04,VWS V14.01,2013-04-10 15:29:00,
2013-04-10 11:34:00,62.1,49.8,29.93,NW,314,1.0,2.0,64,0.00,,---,0.04,VWS V14.01,2013-04-10 15:34:00,
2013-04-10 11:39:00,61.8,49.1,29.94,WSW,254,0.0,4.0,63,0.00,,---,0.04,VWS V14.01,2013-04-10 15:39:00,
2013-04-10 11:45:00,61.5,49.2,29.94,NNW,330,0.0,2.0,64,0.00,,---,0.04,VWS V14.01,2013-04-10 15:45:00,
2013-04-10 11:51:00,61.5,49.2,29.94,North,5,0.0,6.0,64,0.00,,---,0.04,VWS V14.01,2013-04-10 15:51:00,
2013-04-10 11:56:00,61.6,49.3,29.93,WNW,300,0.0,0.0,64,0.00,,---,0.04,VWS V14.01,2013-04-10 15:56:00,
2013-04-10 12:02:00,62.0,49.3,29.93,NW,313,0.0,3.0,63,0.00,,---,0.04,VWS V14.01,2013-04-10 16:02:00,
2013-04-10 12:08:00,62.3,50.0,29.94,WNW,302,0.0,1.0,64,0.00,,---,0.04,VWS V14.01,2013-04-10 16:08:00,
2013-04-10 12:13:00,62.4,49.7,29.94,NNW,343,0.0,0.0,63,0.00,,---,0.04,VWS V14.01,2013-04-10 16:13:00,
2013-04-10 12:18:00,62.6,49.8,29.93,NW,318,0.0,0.0,63,0.00,,---,0.04,VWS V14.01,2013-04-10 16:18:00,
2013-04-10 12:24:00,62.4,49.2,29.94,West,261,3.0,4.0,62,0.00,,---,0.04,VWS V14.01,2013-04-10 16:24:00,
2013-04-10 12:30:00,62.3,49.6,29.94,West,261,0.0,1.0,63,0.00,,---,0.04,VWS V14.01,2013-04-10 16:30:00,
2013-04-10 12:35:00,62.4,50.1,29.93,West,261,0.0,1.0,64,0.00,,---,0.04,VWS V14.01,2013-04-10 16:35:00,
2013-04-10 12:41:00,62.6,49.4,29.94,West,262,0.0,0.0,62,0.00,,---,0.04,VWS V14.01,2013-04-10 16:41:00,
2013-04-10 12:46:00,62.6,49.4,29.94,NNW,348,0.0,0.0,62,0.00,,---,0.04,VWS V14.01,2013-04-10 16:46:00,
2013-04-10 12:51:00,62.7,49.5,29.94,NNW,328,1.0,1.0,62,0.00,,---,0.04,VWS V14.01,2013-04-10 16:51:00,
2013-04-10 12:56:00,62.6,49.4,29.94,NW,317,0.0,1.0,62,0.00,,---,0.04,VWS V14.01,2013-04-10 16:56:00,
2013-04-10 13:01:00,62.7,49.5,29.94,NNW,336,0.0,1.0,62,0.00,,---,0.04,VWS V14.01,2013-04-10 17:01:00,
2013-04-10 13:06:00,62.9,49.7,29.93,NNW,336,0.0,0.0,62,0.00,,---,0.04,VWS V14.01,2013-04-10 17:06:00,
2013-04-10 13:11:00,63.1,49.9,29.93,SSW,207,2.0,2.0,62,0.00,,---,0.04,VWS V14.01,2013-04-10 17:11:00,
2013-04-10 13:17:00,63.5,49.4,29.93,SW,221,0.0,1.0,60,0.00,,---,0.04,VWS V14.01,2013-04-10 17:17:00,
2013-04-10 13:22:00,64.2,50.5,29.93,West,275,0.0,1.0,61,0.00,,---,0.04,VWS V14.01,2013-04-10 17:22:00,
2013-04-10 13:27:00,65.2,50.5,29.93,NNW,348,0.0,4.0,59,0.00,,---,0.04,VWS V14.01,2013-04-10 17:27:00,
2013-04-10 13:32:00,65.8,50.2,29.93,NW,315,0.0,2.0,57,0.00,,---,0.04,VWS V14.01,2013-04-10 17:32:00,
2013-04-10 13:38:00,66.6,50.4,29.92,West,278,1.0,1.0,56,0.00,,---,0.04,VWS V14.01,2013-04-10 17:38:00,
2013-04-10 13:44:00,67.1,49.9,29.92,NNW,347,1.0,5.0,54,0.00,,---,0.04,VWS V14.01,2013-04-10 17:44:00,
2013-04-10 13:49:00,67.1,50.4,29.92,NW,312,1.0,1.0,55,0.00,,---,0.04,VWS V14.01,2013-04-10 17:49:00,
2013-04-10 13:55:00,67.1,50.4,29.92,WNW,300,0.0,1.0,55,0.00,,---,0.04,VWS V14.01,2013-04-10 17:55:00,
2013-04-10 14:00:00,66.8,50.6,29.92,NW,313,0.0,1.0,56,0.00,,---,0.04,VWS V14.01,2013-04-10 18:00:00,
2013-04-10 14:06:00,66.6,50.4,29.92,NW,311,1.0,1.0,56,0.00,,---,0.04,VWS V14.01,2013-04-10 18:06:00,
2013-04-10 14:11:00,66.3,50.2,29.92,NW,308,0.0,0.0,56,0.00,,---,0.04,VWS V14.01,2013-04-10 18:11:00,
2013-04-10 14:16:00,66.3,50.6,29.92,NW,313,0.0,1.0,57,0.00,,---,0.04,VWS V14.01,2013-04-10 18:16:00,
2013-04-10 14:22:00,66.9,50.2,29.92,North,355,1.0,3.0,55,0.00,,---,0.04,VWS V14.01,2013-04-10 18:22:00,
2013-04-10 14:27:00,67.4,49.7,29.91,NW,304,0.0,1.0,53,0.00,,---,0.04,VWS V14.01,2013-04-10 18:27:00,
2013-04-10 14:33:00,67.4,50.7,29.92,NW,313,1.0,4.0,55,0.00,,---,0.04,VWS V14.01,2013-04-10 18:33:00,
2013-04-10 14:39:00,67.6,50.9,29.92,West,270,3.0,3.0,55,0.00,,---,0.04,VWS V14.01,2013-04-10 18:39:00,
2013-04-10 14:44:00,67.8,50.6,29.92,NW,321,0.0,1.0,54,0.00,,---,0.04,VWS V14.01,2013-04-10 18:44:00,
2013-04-10 14:49:00,68.3,51.0,29.91,WNW,290,0.0,2.0,54,0.00,,---,0.04,VWS V14.01,2013-04-10 18:49:00,
2013-04-10 14:54:00,68.6,50.8,29.91,ESE,105,0.0,0.0,53,0.00,,---,0.04,VWS V14.01,2013-04-10 18:54:00,
2013-04-10 14:59:00,69.3,50.9,29.91,NNW,338,4.0,5.0,52,0.00,,---,0.04,VWS V14.01,2013-04-10 18:59:00,
2013-04-10 15:04:00,69.9,51.0,29.90,WNW,289,0.0,1.0,51,0.00,,---,0.04,VWS V14.01,2013-04-10 19:04:00,
2013-04-10 15:10:00,70.6,51.6,29.90,West,273,0.0,0.0,51,0.00,,---,0.04,VWS V14.01,2013-04-10 19:10:00,
2013-04-10 15:15:00,70.6,51.1,29.89,West,273,0.0,5.0,50,0.00,,---,0.04,VWS V14.01,2013-04-10 19:15:00,
2013-04-10 15:20:00,70.4,51.4,29.89,NW,325,1.0,3.0,51,0.00,,---,0.04,VWS V14.01,2013-04-10 19:20:00,
2013-04-10 15:25:00,70.6,51.1,29.89,NNW,327,0.0,0.0,50,0.00,,---,0.04,VWS V14.01,2013-04-10 19:25:00,
2013-04-10 15:30:00,70.3,50.8,29.89,NW,306,0.0,4.0,50,0.00,,---,0.04,VWS V14.01,2013-04-10 19:30:00,
2013-04-10 15:35:00,69.8,50.9,29.88,NW,304,0.0,0.0,51,0.00,,---,0.04,VWS V14.01,2013-04-10 19:35:00,
2013-04-10 15:41:00,69.1,50.8,29.88,NW,304,0.0,0.0,52,0.00,,---,0.04,VWS V14.01,2013-04-10 19:41:00,
2013-04-10 15:47:00,68.8,51.0,29.88,NW,304,0.0,1.0,53,0.00,,---,0.04,VWS V14.01,2013-04-10 19:47:00,
2013-04-10 15:52:00,68.6,50.8,29.88,NW,304,0.0,1.0,53,0.00,,---,0.04,VWS V14.01,2013-04-10 19:52:00,
2013-04-10 15:57:00,68.4,50.6,29.87,NW,317,1.0,2.0,53,0.00,,---,0.04,VWS V14.01,2013-04-10 19:57:00,
2013-04-10 16:03:00,68.6,50.8,29.87,NW,318,0.0,0.0,53,0.00,,---,0.04,VWS V14.01,2013-04-10 20:03:00,
2013-04-10 16:08:00,69.1,52.8,29.87,NW,317,0.0,1.0,56,0.00,,---,0.04,VWS V14.01,2013-04-10 20:08:00,
2013-04-10 16:13:00,69.8,51.4,29.87,WSW,238,0.0,1.0,52,0.00,,---,0.04,VWS V14.01,2013-04-10 20:13:00,
2013-04-10 16:19:00,69.4,51.0,29.86,SW,223,0.0,1.0,52,0.00,,---,0.04,VWS V14.01,2013-04-10 20:19:00,
2013-04-10 16:24:00,68.8,50.5,29.86,SW,223,0.0,1.0,52,0.00,,---,0.04,VWS V14.01,2013-04-10 20:24:00,
2013-04-10 16:29:00,69.3,52.0,29.85,WNW,296,1.0,2.0,54,0.00,,---,0.04,VWS V14.01,2013-04-10 20:29:00,
2013-04-10 16:35:00,70.4,51.4,29.85,WNW,295,0.0,0.0,51,0.00,,---,0.04,VWS V14.01,2013-04-10 20:35:00,
2013-04-10 16:40:00,71.3,51.7,29.85,South,190,4.0,4.0,50,0.00,,---,0.04,VWS V14.01,2013-04-10 20:40:00,
2013-04-10 16:45:00,70.9,50.8,29.84,South,178,1.0,5.0,49,0.00,,---,0.04,VWS V14.01,2013-04-10 20:45:00,
2013-04-10 16:50:00,69.8,50.9,29.84,South,173,1.0,6.0,51,0.00,,---,0.04,VWS V14.01,2013-04-10 20:50:00,
2013-04-10 16:56:00,68.6,50.3,29.84,South,170,1.0,6.0,52,0.00,,---,0.04,VWS V14.01,2013-04-10 20:56:00,
2013-04-10 17:01:00,68.3,50.5,29.84,South,183,1.0,1.0,53,0.00,,---,0.04,VWS V14.01,2013-04-10 21:01:00,
2013-04-10 17:06:00,68.4,50.6,29.83,South,171,1.0,2.0,53,0.00,,---,0.04,VWS V14.01,2013-04-10 21:06:00,
2013-04-10 17:11:00,69.1,50.2,29.84,SSE,158,0.0,1.0,51,0.00,,---,0.04,VWS V14.01,2013-04-10 21:11:00,
2013-04-10 17:16:00,68.6,49.8,29.84,SSE,157,4.0,5.0,51,0.00,,---,0.04,VWS V14.01,2013-04-10 21:16:00,
2013-04-10 17:22:00,67.9,50.2,29.84,South,173,2.0,4.0,53,0.00,,---,0.04,VWS V14.01,2013-04-10 21:22:00,
2013-04-10 17:27:00,67.3,49.6,29.84,SSE,153,3.0,4.0,53,0.00,,---,0.04,VWS V14.01,2013-04-10 21:27:00,
2013-04-10 17:33:00,67.1,49.9,29.83,SSE,164,5.0,7.0,54,0.00,,---,0.04,VWS V14.01,2013-04-10 21:33:00,
2013-04-10 17:39:00,66.9,50.2,29.82,SSW,195,3.0,5.0,55,0.00,,---,0.04,VWS V14.01,2013-04-10 21:39:00,
2013-04-10 17:45:00,66.4,49.8,29.83,SE,141,4.0,4.0,55,0.00,,---,0.04,VWS V14.01,2013-04-10 21:45:00,
2013-04-10 17:50:00,65.8,49.7,29.83,SSW,202,3.0,4.0,56,0.00,,---,0.04,VWS V14.01,2013-04-10 21:50:00,
2013-04-10 17:55:00,65.0,49.4,29.84,SSW,204,0.0,5.0,57,0.00,,---,0.04,VWS V14.01,2013-04-10 21:55:00,
2013-04-10 18:00:00,64.3,49.2,29.84,East,89,3.0,6.0,58,0.00,,---,0.04,VWS V14.01,2013-04-10 22:00:00,
2013-04-10 18:05:00,64.0,49.4,29.84,NE,53,2.0,5.0,59,0.00,,---,0.04,VWS V14.01,2013-04-10 22:05:00,
2013-04-10 18:10:00,63.5,48.9,29.84,ESE,121,0.0,5.0,59,0.00,,---,0.04,VWS V14.01,2013-04-10 22:10:00,
2013-04-10 18:15:00,63.4,49.3,29.84,South,171,3.0,3.0,60,0.00,,---,0.04,VWS V14.01,2013-04-10 22:15:00,
2013-04-10 18:20:00,63.2,49.1,29.84,SSE,167,0.0,3.0,60,0.00,,---,0.04,VWS V14.01,2013-04-10 22:20:00,
2013-04-10 18:26:00,63.1,49.5,29.84,South,182,0.0,3.0,61,0.00,,---,0.04,VWS V14.01,2013-04-10 22:26:00,
2013-04-10 18:31:00,62.9,49.3,29.84,NNE,17,0.0,0.0,61,0.00,,---,0.04,VWS V14.01,2013-04-10 22:31:00,
2013-04-10 18:36:00,62.9,49.3,29.84,South,172,2.0,2.0,61,0.00,,---,0.04,VWS V14.01,2013-04-10 22:36:00,
2013-04-10 18:41:00,62.7,49.1,29.84,ESE,107,0.0,1.0,61,0.00,,---,0.04,VWS V14.01,2013-04-10 22:41:00,
2013-04-10 18:46:00,62.7,49.1,29.83,SSW,196,0.0,4.0,61,0.00,,---,0.04,VWS V14.01,2013-04-10 22:46:00,
2013-04-10 18:51:00,62.6,49.4,29.82,NE,41,0.0,2.0,62,0.00,,---,0.04,VWS V14.01,2013-04-10 22:51:00,
2013-04-10 18:56:00,62.4,49.2,29.82,South,178,0.0,2.0,62,0.00,,---,0.04,VWS V14.01,2013-04-10 22:56:00,
2013-04-10 19:01:00,62.0,48.8,29.83,South,180,2.0,5.0,62,0.00,,---,0.04,VWS V14.01,2013-04-10 23:01:00,
2013-04-10 19:07:00,61.5,47.9,29.83,SSE,157,0.0,6.0,61,0.00,,---,0.04,VWS V14.01,2013-04-10 23:07:00,
2013-04-10 19:12:00,61.0,47.9,29.84,South,190,0.0,2.0,62,0.00,,---,0.04,VWS V14.01,2013-04-10 23:12:00,
2013-04-10 19:18:00,60.5,47.9,29.86,SW,220,3.0,4.0,63,0.00,,---,0.04,VWS V14.01,2013-04-10 23:18:00,
2013-04-10 19:23:00,59.9,48.9,29.92,WSW,240,4.0,7.0,67,0.01,,---,0.05,VWS V14.01,2013-04-10 23:23:00,
2013-04-10 19:28:00,58.7,50.5,29.92,West,273,3.0,4.0,74,0.05,,---,0.09,VWS V14.01,2013-04-10 23:28:00,
2013-04-10 19:33:00,57.3,50.5,29.93,SW,226,1.0,2.0,78,0.06,,---,0.10,VWS V14.01,2013-04-10 23:33:00,
2013-04-10 19:38:00,56.5,50.8,29.92,SSW,198,0.0,3.0,81,0.07,,---,0.11,VWS V14.01,2013-04-10 23:38:00,
2013-04-10 19:43:00,55.9,50.8,29.90,SE,131,2.0,3.0,83,0.08,,---,0.12,VWS V14.01,2013-04-10 23:43:00,
2013-04-10 19:48:00,55.6,50.8,29.90,SE,131,0.0,0.0,84,0.09,,---,0.13,VWS V14.01,2013-04-10 23:48:00,
2013-04-10 19:53:00,55.4,51.3,29.89,ESE,117,0.0,1.0,86,0.11,,---,0.15,VWS V14.01,2013-04-10 23:53:00,
2013-04-10 19:59:00,55.1,51.3,29.88,SE,144,0.0,2.0,87,0.13,,---,0.17,VWS V14.01,2013-04-10 23:59:00,
2013-04-10 20:04:00,55.0,51.2,29.84,SE,140,2.0,2.0,87,0.14,,---,0.18,VWS V14.01,2013-04-11 00:04:00,
2013-04-10 20:09:00,54.7,51.2,29.82,South,190,0.0,2.0,88,0.15,,---,0.19,VWS V14.01,2013-04-11 00:09:00,
2013-04-10 20:14:00,54.4,50.9,29.82,SSE,161,1.0,5.0,88,0.15,,---,0.19,VWS V14.01,2013-04-11 00:14:00,
2013-04-10 20:19:00,54.1,50.9,29.83,South,171,3.0,6.0,89,0.15,,---,0.19,VWS V14.01,2013-04-11 00:19:00,
2013-04-10 20:24:00,53.9,50.7,29.83,SSE,161,0.0,2.0,89,0.14,,---,0.19,VWS V14.01,2013-04-11 00:24:00,
2013-04-10 20:30:00,53.8,50.6,29.83,South,189,0.0,4.0,89,0.10,,---,0.19,VWS V14.01,2013-04-11 00:30:00,
2013-04-10 20:35:00,53.6,50.7,29.83,ESE,108,0.0,0.0,90,0.09,,---,0.19,VWS V14.01,2013-04-11 00:35:00,
2013-04-10 20:41:00,53.6,50.7,29.83,ENE,63,0.0,0.0,90,0.08,,---,0.19,VWS V14.01,2013-04-11 00:41:00,
2013-04-10 20:47:00,53.5,50.6,29.84,East,100,0.0,0.0,90,0.06,,---,0.19,VWS V14.01,2013-04-11 00:47:00,
2013-04-10 20:53:00,53.3,50.5,29.84,East,98,0.0,0.0,90,0.04,,---,0.19,VWS V14.01,2013-04-11 00:53:00,
2013-04-10 20:58:00,53.3,50.5,29.83,East,98,0.0,0.0,90,0.03,,---,0.19,VWS V14.01,2013-04-11 00:58:00,
2013-04-10 21:04:00,53.2,50.3,29.83,SE,132,0.0,0.0,90,0.01,,---,0.19,VWS V14.01,2013-04-11 01:04:00,
2013-04-10 21:09:00,53.2,50.3,29.83,SE,132,0.0,0.0,90,0.00,,---,0.19,VWS V14.01,2013-04-11 01:09:00,
2013-04-10 21:14:00,53.1,50.5,29.83,SE,132,0.0,0.0,91,0.00,,---,0.19,VWS V14.01,2013-04-11 01:14:00,
2013-04-10 21:20:00,52.9,50.3,29.83,SE,132,0.0,0.0,91,0.00,,---,0.19,VWS V14.01,2013-04-11 01:20:00,
2013-04-10 21:26:00,52.9,50.3,29.83,SE,132,0.0,1.0,91,0.00,,---,0.19,VWS V14.01,2013-04-11 01:26:00,
2013-04-10 21:32:00,52.9,50.3,29.83,SE,132,0.0,0.0,91,0.00,,---,0.19,VWS V14.01,2013-04-11 01:32:00,
2013-04-10 21:37:00,52.8,50.2,29.82,ESE,118,0.0,1.0,91,0.00,,---,0.19,VWS V14.01,2013-04-11 01:37:00,
2013-04-10 21:43:00,52.8,50.5,29.83,ESE,118,0.0,0.0,92,0.00,,---,0.19,VWS V14.01,2013-04-11 01:43:00,
2013-04-10 21:48:00,52.8,50.5,29.85,ESE,118,0.0,0.0,92,0.00,,---,0.19,VWS V14.01,2013-04-11 01:48:00,
2013-04-10 21:53:00,52.8,50.5,29.83,ESE,118,0.0,0.0,92,0.00,,---,0.19,VWS V14.01,2013-04-11 01:53:00,
2013-04-10 21:59:00,52.8,50.5,29.85,ESE,118,0.0,0.0,92,0.00,,---,0.19,VWS V14.01,2013-04-11 01:59:00,
2013-04-10 22:04:00,52.8,50.5,29.87,ESE,118,0.0,0.0,92,0.00,,---,0.19,VWS V14.01,2013-04-11 02:04:00,
2013-04-10 22:10:00,52.8,50.5,29.87,ESE,118,0.0,0.0,92,0.03,,---,0.22,VWS V14.01,2013-04-11 02:10:00,
2013-04-10 22:15:00,52.8,50.5,29.86,ESE,118,0.0,0.0,92,0.04,,---,0.23,VWS V14.01,2013-04-11 02:15:00,
2013-04-10 22:20:00,52.8,50.8,29.86,ESE,118,0.0,0.0,93,0.04,,---,0.23,VWS V14.01,2013-04-11 02:20:00,
2013-04-10 22:25:00,52.9,50.9,29.86,ESE,118,0.0,0.0,93,0.04,,---,0.23,VWS V14.01,2013-04-11 02:25:00,
2013-04-10 22:31:00,52.9,50.9,29.87,ESE,118,0.0,0.0,93,0.04,,---,0.23,VWS V14.01,2013-04-11 02:31:00,
2013-04-10 22:36:00,52.8,50.8,29.88,ESE,118,0.0,0.0,93,0.04,,---,0.23,VWS V14.01,2013-04-11 02:36:00,
2013-04-10 22:41:00,52.8,50.8,29.87,ESE,118,0.0,0.0,93,0.05,,---,0.24,VWS V14.01,2013-04-11 02:41:00,
2013-04-10 22:46:00,52.9,50.9,29.86,ESE,118,0.0,0.0,93,0.05,,---,0.24,VWS V14.01,2013-04-11 02:46:00,
2013-04-10 22:51:00,52.8,50.8,29.86,ESE,118,0.0,2.0,93,0.05,,---,0.24,VWS V14.01,2013-04-11 02:51:00,
2013-04-10 22:56:00,52.8,50.8,29.86,ESE,118,0.0,0.0,93,0.05,,---,0.24,VWS V14.01,2013-04-11 02:56:00,
2013-04-10 23:01:00,52.8,50.8,29.85,SE,133,0.0,0.0,93,0.06,,---,0.25,VWS V14.01,2013-04-11 03:01:00,
2013-04-10 23:07:00,52.6,50.6,29.85,SSE,163,0.0,2.0,93,0.05,,---,0.25,VWS V14.01,2013-04-11 03:07:00,
2013-04-10 23:13:00,52.6,50.9,29.86,SE,141,0.0,0.0,94,0.02,,---,0.25,VWS V14.01,2013-04-11 03:13:00,
2013-04-10 23:19:00,52.5,50.8,29.86,South,176,0.0,0.0,94,0.02,,---,0.25,VWS V14.01,2013-04-11 03:19:00,
2013-04-10 23:24:00,52.5,50.8,29.86,SSE,151,0.0,0.0,94,0.02,,---,0.25,VWS V14.01,2013-04-11 03:24:00,
2013-04-10 23:29:00,52.3,50.6,29.85,ENE,66,0.0,0.0,94,0.02,,---,0.25,VWS V14.01,2013-04-11 03:29:00,
2013-04-10 23:34:00,52.3,50.6,29.84,SE,133,0.0,0.0,94,0.02,,---,0.25,VWS V14.01,2013-04-11 03:34:00,
2013-04-10 23:39:00,52.3,50.6,29.83,SE,144,1.0,2.0,94,0.02,,---,0.25,VWS V14.01,2013-04-11 03:39:00,
2013-04-10 23:45:00,52.3,50.6,29.84,SSE,163,0.0,3.0,94,0.01,,---,0.25,VWS V14.01,2013-04-11 03:45:00,
2013-04-10 23:50:00,52.3,50.6,29.84,SSE,160,1.0,3.0,94,0.01,,---,0.25,VWS V14.01,2013-04-11 03:50:00,
2013-04-10 23:57:00,52.3,50.6,29.83,SSE,152,0.0,3.0,94,0.01,,---,0.25,VWS V14.01,2013-04-11 03:57:00,